createdAt,value
2018-01-15T00:01:19.933Z,34.73
2018-01-15T00:03:47.521Z,35.97
2018-01-15T00:06:15.164Z,35.87
2018-01-15T00:08:42.760Z,37.67
2018-01-15T00:11:10.355Z,35.60
2018-01-15T00:13:37.969Z,34.23
2018-01-15T00:16:05.545Z,37.80
2018-01-15T00:18:33.921Z,33.10
2018-01-15T00:21:01.528Z,34.07
2018-01-15T00:23:29.920Z,38.83
2018-01-15T00:25:57.506Z,31.63
2018-01-15T00:28:25.088Z,35.27
2018-01-15T00:30:53.531Z,33.83
2018-01-15T00:33:21.127Z,30.87
2018-01-15T00:35:48.763Z,34.50
2018-01-15T00:38:16.377Z,32.63
2018-01-15T00:40:43.972Z,37.63
2018-01-15T00:43:11.572Z,34.70
2018-01-15T00:45:39.946Z,35.40
2018-01-15T00:48:07.574Z,36.63
2018-01-15T00:50:35.144Z,32.07
2018-01-15T00:53:03.538Z,39.63
2018-01-15T00:55:31.122Z,36.23
2018-01-15T00:57:58.713Z,33.77
2018-01-15T01:00:26.279Z,34.93
2018-01-15T01:02:54.828Z,38.17
2018-01-15T01:05:23.162Z,34.97
2018-01-15T01:07:50.787Z,45.20
2018-01-15T01:10:19.122Z,40.10
2018-01-15T01:12:46.731Z,33.40
2018-01-15T01:15:14.313Z,34.37
2018-01-15T01:17:41.903Z,34.67
2018-01-15T01:20:09.525Z,40.50
2018-01-15T01:22:37.108Z,36.80
2018-01-15T01:25:04.743Z,37.17
2018-01-15T01:27:32.308Z,37.50
2018-01-15T01:30:00.694Z,32.13
2018-01-15T01:32:29.056Z,40.10
2018-01-15T01:34:57.433Z,33.70
2018-01-15T01:37:25.010Z,37.53
2018-01-15T01:39:54.263Z,36.27
2018-01-15T01:42:22.329Z,42.70
2018-01-15T01:44:49.950Z,35.40
2018-01-15T01:47:17.520Z,43.33
2018-01-15T01:49:45.092Z,39.53
2018-01-15T01:52:12.683Z,40.40
2018-01-15T01:54:40.259Z,36.53
2018-01-15T01:57:07.869Z,41.67
2018-01-15T01:59:35.475Z,45.83
2018-01-15T02:02:03.080Z,40.30
2018-01-15T02:04:31.410Z,41.10
2018-01-15T02:06:59.009Z,42.97
2018-01-15T02:09:26.592Z,42.93
2018-01-15T02:11:54.200Z,47.83
2018-01-15T02:14:22.464Z,42.43
2018-01-15T02:16:50.080Z,42.30
2018-01-15T02:19:17.662Z,38.60
2018-01-15T02:21:45.268Z,37.93
2018-01-15T02:24:12.872Z,43.80
2018-01-15T02:26:40.469Z,44.90
2018-01-15T02:29:08.855Z,37.67
2018-01-15T02:31:36.475Z,36.20
2018-01-15T02:34:04.118Z,36.83
2018-01-15T02:36:31.704Z,34.53
2018-01-15T02:38:59.343Z,40.20
2018-01-15T02:41:26.950Z,43.10
2018-01-15T02:43:54.580Z,48.90
2018-01-15T02:46:22.911Z,37.73
2018-01-15T02:48:50.537Z,45.53
2018-01-15T02:51:18.133Z,38.87
2018-01-15T02:53:45.705Z,38.03
2018-01-15T02:56:13.337Z,36.93
2018-01-15T02:58:40.907Z,40.50
2018-01-15T03:01:09.278Z,40.90
2018-01-15T03:03:36.850Z,36.43
2018-01-15T03:06:04.482Z,44.00
2018-01-15T03:08:32.847Z,41.20
2018-01-15T03:11:00.479Z,38.63
2018-01-15T03:13:28.829Z,35.70
2018-01-15T03:15:56.433Z,37.13
2018-01-15T03:18:24.022Z,36.63
2018-01-15T03:20:52.465Z,40.13
2018-01-15T03:23:20.057Z,30.60
2018-01-15T03:25:47.686Z,42.30
2018-01-15T03:28:15.264Z,36.30
2018-01-15T03:30:42.874Z,38.90
2018-01-15T03:33:11.209Z,38.20
2018-01-15T03:35:38.782Z,41.10
2018-01-15T03:38:07.170Z,36.27
2018-01-15T03:40:35.521Z,38.63
2018-01-15T03:43:03.135Z,46.67
2018-01-15T03:45:30.728Z,40.93
2018-01-15T03:47:58.345Z,41.47
2018-01-15T03:50:25.939Z,35.57
2018-01-15T03:52:54.843Z,37.67
2018-01-15T03:55:23.791Z,39.37
2018-01-15T03:57:52.783Z,36.63
2018-01-15T04:00:20.365Z,39.90
2018-01-15T04:02:47.960Z,39.57
2018-01-15T04:05:15.555Z,35.87
2018-01-15T04:07:43.175Z,35.20
2018-01-15T04:10:10.801Z,32.20
2018-01-15T04:12:38.370Z,37.00
2018-01-15T04:15:06.730Z,36.83
2018-01-15T04:17:34.330Z,39.67
2018-01-15T04:20:01.946Z,38.97
2018-01-15T04:22:30.306Z,33.30
2018-01-15T04:24:57.932Z,38.37
2018-01-15T04:27:26.276Z,33.93
2018-01-15T04:29:54.903Z,38.10
2018-01-15T04:32:23.825Z,35.13
2018-01-15T04:34:51.457Z,43.20
2018-01-15T04:37:19.042Z,33.30
2018-01-15T04:39:46.628Z,38.60
2018-01-15T04:42:14.256Z,39.30
2018-01-15T04:44:41.849Z,40.00
2018-01-15T04:47:09.479Z,45.90
2018-01-15T04:49:37.832Z,34.00
2018-01-15T04:52:05.462Z,42.43
2018-01-15T04:54:33.844Z,35.60
2018-01-15T04:57:01.440Z,37.43
2018-01-15T04:59:29.813Z,36.30
2018-01-15T05:01:57.415Z,35.50
2018-01-15T05:04:25.025Z,42.30
2018-01-15T05:06:54.702Z,40.27
2018-01-15T05:09:22.353Z,32.87
2018-01-15T05:11:49.959Z,34.83
2018-01-15T05:14:17.574Z,40.27
2018-01-15T05:16:45.171Z,40.43
2018-01-15T05:19:12.792Z,39.80
2018-01-15T05:21:40.372Z,40.10
2018-01-15T05:24:08.752Z,47.77
2018-01-15T05:26:36.332Z,43.60
2018-01-15T05:29:03.938Z,39.47
2018-01-15T05:31:31.542Z,38.10
2018-01-15T05:33:59.161Z,40.43
2018-01-15T05:36:26.726Z,37.10
2018-01-15T05:38:54.351Z,42.77
2018-01-15T05:41:22.391Z,38.13
2018-01-15T05:43:50.000Z,51.83
2018-01-15T05:46:17.611Z,41.60
2018-01-15T05:48:45.196Z,40.60
2018-01-15T05:51:12.801Z,39.13
2018-01-15T05:53:41.157Z,38.83
2018-01-15T05:56:08.758Z,41.73
2018-01-15T05:58:36.350Z,48.03
2018-01-15T06:01:03.954Z,44.23
2018-01-15T06:03:31.540Z,37.90
2018-01-15T06:05:59.911Z,44.63
2018-01-15T06:08:28.283Z,38.00
2018-01-15T06:10:55.889Z,37.83
2018-01-15T06:13:24.269Z,43.83
2018-01-15T06:15:52.667Z,40.00
2018-01-15T06:18:20.253Z,42.97
2018-01-15T06:20:47.872Z,40.07
2018-01-15T06:23:16.463Z,41.47
2018-01-15T06:25:44.063Z,44.30
2018-01-15T06:28:11.633Z,36.00
2018-01-15T06:30:39.262Z,48.90
2018-01-15T06:33:06.838Z,43.03
2018-01-15T06:35:34.431Z,42.80
2018-01-15T06:38:02.060Z,34.13
2018-01-15T06:40:29.633Z,46.13
2018-01-15T06:42:57.256Z,40.07
2018-01-15T06:45:24.846Z,40.67
2018-01-15T06:47:53.751Z,44.90
2018-01-15T06:50:21.329Z,49.40
2018-01-15T06:52:48.916Z,42.83
2018-01-15T06:55:16.505Z,40.00
2018-01-15T06:57:44.123Z,37.87
2018-01-15T07:00:11.700Z,38.07
2018-01-15T07:02:39.301Z,39.63
2018-01-15T07:05:07.663Z,34.87
2018-01-15T07:07:35.297Z,46.10
2018-01-15T07:10:03.656Z,38.70
2018-01-15T07:12:31.254Z,40.37
2018-01-15T07:14:58.876Z,38.47
2018-01-15T07:17:27.216Z,45.13
2018-01-15T07:19:54.840Z,41.17
2018-01-15T07:22:24.059Z,41.10
2018-01-15T07:24:52.304Z,39.90
2018-01-15T07:27:19.913Z,44.57
2018-01-15T07:29:47.520Z,37.80
2018-01-15T07:32:15.088Z,35.20
2018-01-15T07:34:42.692Z,40.03
2018-01-15T07:37:10.281Z,38.60
2018-01-15T07:39:37.905Z,35.50
2018-01-15T07:42:05.510Z,35.03
2018-01-15T07:44:33.101Z,40.20
2018-01-15T07:47:00.725Z,41.50
2018-01-15T07:49:28.338Z,33.47
2018-01-15T07:51:55.941Z,34.70
2018-01-15T07:54:24.691Z,43.20
2018-01-15T07:56:52.351Z,41.37
2018-01-15T07:59:19.951Z,35.27
2018-01-15T08:01:47.548Z,42.77
2018-01-15T08:04:15.146Z,31.67
2018-01-15T08:06:42.765Z,34.60
2018-01-15T08:09:10.352Z,33.27
2018-01-15T08:11:37.963Z,35.93
2018-01-15T08:14:05.554Z,28.30
2018-01-15T08:16:33.133Z,32.77
2018-01-15T08:19:00.766Z,28.30
2018-01-15T08:21:28.355Z,33.20
2018-01-15T08:23:56.743Z,29.73
2018-01-15T08:26:24.342Z,36.13
2018-01-15T08:28:52.359Z,33.97
2018-01-15T08:31:19.945Z,32.23
2018-01-15T08:33:47.572Z,32.20
2018-01-15T08:36:15.197Z,31.80
2018-01-15T08:38:43.598Z,28.27
2018-01-15T08:41:11.979Z,28.93
2018-01-15T08:43:39.626Z,33.40
2018-01-15T08:46:07.214Z,26.50
2018-01-15T08:48:35.779Z,27.37
2018-01-15T08:51:04.157Z,28.23
2018-01-15T08:53:31.756Z,26.50
2018-01-15T08:55:59.403Z,24.90
2018-01-15T08:58:26.991Z,25.93
2018-01-15T09:00:54.638Z,27.10
2018-01-15T09:03:23.269Z,27.80
2018-01-15T09:05:50.865Z,24.90
2018-01-15T09:08:18.444Z,24.10
2018-01-15T09:10:46.056Z,21.87
2018-01-15T09:13:13.667Z,19.27
2018-01-15T09:15:41.254Z,21.53
2018-01-15T09:18:08.826Z,19.00
2018-01-15T09:20:36.437Z,19.07
2018-01-15T09:23:04.764Z,22.87
2018-01-15T09:25:32.350Z,21.47
2018-01-15T09:27:59.966Z,19.40
2018-01-15T09:30:27.550Z,19.47
2018-01-15T09:32:55.154Z,18.63
2018-01-15T09:35:23.609Z,20.87
2018-01-15T09:37:51.260Z,19.30
2018-01-15T09:40:19.594Z,17.33
2018-01-15T09:42:47.215Z,16.70
2018-01-15T09:45:14.795Z,16.53
2018-01-15T09:47:42.395Z,15.40
2018-01-15T09:50:09.960Z,15.27
2018-01-15T09:52:37.590Z,23.77
2018-01-15T09:55:05.940Z,18.17
2018-01-15T09:57:33.531Z,13.90
2018-01-15T10:00:01.095Z,16.70
2018-01-15T10:02:28.714Z,16.23
2018-01-15T10:04:56.309Z,19.23
2018-01-15T10:07:24.766Z,16.23
2018-01-15T10:09:52.404Z,21.53
2018-01-15T10:12:20.007Z,17.30
2018-01-15T10:14:48.392Z,16.40
2018-01-15T10:17:15.995Z,19.23
2018-01-15T10:19:44.388Z,16.40
2018-01-15T10:22:12.750Z,20.93
2018-01-15T10:24:40.379Z,16.43
2018-01-15T10:27:08.748Z,14.90
2018-01-15T10:29:36.373Z,13.33
2018-01-15T10:32:04.708Z,15.13
2018-01-15T10:34:32.278Z,16.33
2018-01-15T10:36:59.913Z,20.10
2018-01-15T10:39:27.483Z,16.57
2018-01-15T10:41:55.104Z,18.80
2018-01-15T10:44:24.626Z,17.03
2018-01-15T10:46:53.373Z,17.67
2018-01-15T10:49:20.958Z,14.60
2018-01-15T10:51:48.577Z,17.07
2018-01-15T10:54:16.177Z,14.00
2018-01-15T10:56:43.818Z,13.60
2018-01-15T10:59:11.390Z,17.20
2018-01-15T11:01:38.996Z,15.87
2018-01-15T11:04:06.573Z,17.30
2018-01-15T11:06:34.175Z,24.00
2018-01-15T11:09:01.746Z,15.20
2018-01-15T11:11:29.372Z,45.80
2018-01-15T11:13:56.971Z,18.27
2018-01-15T11:16:24.631Z,14.80
2018-01-15T11:18:53.301Z,14.50
2018-01-15T11:21:20.900Z,17.03
2018-01-15T11:23:48.487Z,14.90
2018-01-15T11:26:16.066Z,14.03
2018-01-15T11:28:43.662Z,15.03
2018-01-15T11:31:11.263Z,17.93
2018-01-15T11:33:38.883Z,14.70
2018-01-15T11:36:07.245Z,14.80
2018-01-15T11:38:34.848Z,16.30
2018-01-15T11:41:02.426Z,15.87
2018-01-15T11:43:30.011Z,16.57
2018-01-15T11:45:57.612Z,15.63
2018-01-15T11:48:25.246Z,15.80
2018-01-15T11:50:52.811Z,14.20
2018-01-15T11:53:20.398Z,17.07
2018-01-15T11:55:48.028Z,15.13
2018-01-15T11:58:15.632Z,16.63
2018-01-15T12:00:43.234Z,18.30
2018-01-15T12:03:11.582Z,14.00
2018-01-15T12:05:39.179Z,15.00
2018-01-15T12:08:06.760Z,13.23
2018-01-15T12:10:34.387Z,14.27
2018-01-15T12:13:02.729Z,14.93
2018-01-15T12:15:30.342Z,14.23
2018-01-15T12:17:57.925Z,13.67
2018-01-15T12:20:25.542Z,15.00
2018-01-15T12:22:54.905Z,17.33
2018-01-15T12:25:24.088Z,15.83
2018-01-15T12:27:53.412Z,15.87
2018-01-15T12:30:22.873Z,15.33
2018-01-15T12:32:50.527Z,13.73
2018-01-15T12:35:18.878Z,14.60
2018-01-15T12:37:46.511Z,14.43
2018-01-15T12:40:14.135Z,16.10
2018-01-15T12:42:41.753Z,15.57
2018-01-15T12:45:09.360Z,18.37
2018-01-15T12:47:36.962Z,15.43
2018-01-15T12:50:05.309Z,20.03
2018-01-15T12:52:32.922Z,22.77
2018-01-15T12:55:00.508Z,14.87
2018-01-15T12:57:28.114Z,21.23
2018-01-15T12:59:55.688Z,15.50
2018-01-15T13:02:24.456Z,21.10
2018-01-15T13:04:52.673Z,18.87
2018-01-15T13:07:32.218Z,16.57
2018-01-15T13:09:59.802Z,18.00
2018-01-15T13:12:27.408Z,15.27
2018-01-15T13:14:54.968Z,19.07
2018-01-15T13:17:23.523Z,14.50
2018-01-15T13:19:51.086Z,16.60
2018-01-15T13:22:18.678Z,20.97
2018-01-15T13:24:46.253Z,14.03
2018-01-15T13:27:13.830Z,15.27
2018-01-15T13:29:42.210Z,13.37
2018-01-15T13:32:09.817Z,13.37
2018-01-15T13:34:37.403Z,13.20
2018-01-15T13:37:05.035Z,16.03
2018-01-15T13:39:33.459Z,12.80
2018-01-15T13:42:01.063Z,15.80
2018-01-15T13:44:28.684Z,22.67
2018-01-15T13:46:56.261Z,16.73
2018-01-15T13:49:24.495Z,15.30
2018-01-15T13:51:52.846Z,15.87
2018-01-15T13:54:20.425Z,15.93
2018-01-15T13:56:48.034Z,15.87
2018-01-15T13:59:15.626Z,16.83
2018-01-15T14:01:43.216Z,54.23
2018-01-15T14:04:10.812Z,31.20
2018-01-15T14:06:38.423Z,24.63
2018-01-15T14:09:06.018Z,25.00
2018-01-15T14:11:33.649Z,21.23
2018-01-15T14:14:01.248Z,21.40
2018-01-15T14:16:28.856Z,23.37
2018-01-15T14:18:57.202Z,22.63
2018-01-15T14:21:24.858Z,20.10
2018-01-15T14:23:53.801Z,18.70
2018-01-15T14:26:21.419Z,18.80
2018-01-15T14:28:49.017Z,18.97
2018-01-15T14:31:17.411Z,18.50
2018-01-15T14:33:44.990Z,20.03
2018-01-15T14:36:12.616Z,24.63
2018-01-15T14:38:40.198Z,23.77
2018-01-15T14:41:07.783Z,22.77
2018-01-15T14:43:35.375Z,15.80
2018-01-15T14:46:02.958Z,18.93
2018-01-15T14:48:30.575Z,14.30
2018-01-15T14:50:58.182Z,16.30
2018-01-15T14:53:25.804Z,18.07
2018-01-15T14:55:54.623Z,18.23
2018-01-15T14:58:23.231Z,18.40
2018-01-15T15:00:50.790Z,15.87
2018-01-15T15:03:19.172Z,14.53
2018-01-15T15:05:46.768Z,16.80
2018-01-15T15:08:14.382Z,17.57
2018-01-15T15:10:41.974Z,15.27
2018-01-15T15:13:09.687Z,22.07
2018-01-15T15:15:37.294Z,16.73
2018-01-15T15:18:04.908Z,22.13
2018-01-15T15:20:34.276Z,17.83
2018-01-15T15:23:01.880Z,21.00
2018-01-15T15:25:29.462Z,15.27
2018-01-15T15:27:57.068Z,22.73
2018-01-15T15:30:24.688Z,18.97
2018-01-15T15:32:53.290Z,16.97
2018-01-15T15:35:22.322Z,19.70
2018-01-15T15:37:49.901Z,19.40
2018-01-15T15:40:17.500Z,16.20
2018-01-15T15:42:45.635Z,15.97
2018-01-15T15:45:13.286Z,16.50
2018-01-15T15:47:40.872Z,13.57
2018-01-15T15:50:08.512Z,16.10
2018-01-15T15:52:36.097Z,15.10
2018-01-15T15:55:03.693Z,13.60
2018-01-15T15:57:32.035Z,13.73
2018-01-15T15:59:59.637Z,16.57
2018-01-15T16:02:27.213Z,14.87
2018-01-15T16:04:54.798Z,14.50
2018-01-15T16:07:23.103Z,17.30
2018-01-15T16:09:50.672Z,15.97
2018-01-15T16:12:18.260Z,16.40
2018-01-15T16:14:45.833Z,15.27
2018-01-15T16:17:13.441Z,16.60
2018-01-15T16:19:41.020Z,19.27
2018-01-15T16:22:20.540Z,21.97
2018-01-15T16:24:48.866Z,15.90
2018-01-15T16:27:16.457Z,15.00
2018-01-15T16:29:44.042Z,18.90
2018-01-15T16:32:11.645Z,17.53
2018-01-15T16:34:39.218Z,17.53
2018-01-15T16:37:06.798Z,17.63
2018-01-15T16:39:34.395Z,26.13
2018-01-15T16:42:01.973Z,15.60
2018-01-15T16:44:29.572Z,18.30
2018-01-15T16:46:57.155Z,14.37
2018-01-15T16:49:24.759Z,15.93
2018-01-15T16:51:53.314Z,20.80
2018-01-15T16:54:20.904Z,17.53
2018-01-15T16:56:48.488Z,16.53
2018-01-15T16:59:16.085Z,16.20
2018-01-15T17:01:43.668Z,18.80
2018-01-15T17:04:11.269Z,17.03
2018-01-15T17:06:38.921Z,17.93
2018-01-15T17:09:06.576Z,28.93
2018-01-15T17:11:34.131Z,18.00
2018-01-15T17:14:01.737Z,22.10
2018-01-15T17:16:29.547Z,16.53
2018-01-15T17:18:58.010Z,15.60
2018-01-15T17:21:25.599Z,19.17
2018-01-15T17:23:55.269Z,15.60
2018-01-15T17:26:24.875Z,18.10
2018-01-15T17:28:53.555Z,18.17
2018-01-15T17:31:21.161Z,16.80
2018-01-15T17:33:48.718Z,14.97
2018-01-15T17:36:16.322Z,16.07
2018-01-15T17:38:43.888Z,19.03
2018-01-15T17:41:11.497Z,18.40
2018-01-15T17:43:39.054Z,19.53
2018-01-15T17:46:06.650Z,18.67
2018-01-15T17:48:34.414Z,17.73
2018-01-15T17:51:02.101Z,18.87
2018-01-15T17:53:29.696Z,18.80
2018-01-15T17:55:57.285Z,17.00
2018-01-15T17:58:24.889Z,20.23
2018-01-15T18:00:53.398Z,16.70
2018-01-15T18:03:20.996Z,15.40
2018-01-15T18:05:48.701Z,16.80
2018-01-15T18:08:16.301Z,17.03
2018-01-15T18:10:44.631Z,17.10
2018-01-15T18:13:12.223Z,14.97
2018-01-15T18:15:40.880Z,17.90
2018-01-15T18:18:08.920Z,19.13
2018-01-15T18:20:36.494Z,16.57
2018-01-15T18:23:04.944Z,14.70
2018-01-15T18:25:32.528Z,18.40
2018-01-15T18:28:00.130Z,19.30
2018-01-15T18:30:27.710Z,20.07
2018-01-15T18:32:55.469Z,16.00
2018-01-15T18:35:24.733Z,18.03
2018-01-15T18:37:54.189Z,18.73
2018-01-15T18:40:23.622Z,18.23
2018-01-15T18:42:52.392Z,19.40
2018-01-15T18:45:19.974Z,17.30
2018-01-15T18:47:47.575Z,21.53
2018-01-15T18:50:15.196Z,21.63
2018-01-15T18:52:42.774Z,20.30
2018-01-15T18:55:11.154Z,15.37
2018-01-15T18:57:38.755Z,18.00
2018-01-15T19:00:08.135Z,16.73
2018-01-15T19:02:35.717Z,18.70
2018-01-15T19:05:03.319Z,20.10
2018-01-15T19:07:30.897Z,18.20
2018-01-15T19:09:58.497Z,21.33
2018-01-15T19:12:26.080Z,15.23
2018-01-15T19:14:55.026Z,21.23
2018-01-15T19:17:23.680Z,16.90
2018-01-15T19:19:51.279Z,21.00
2018-01-15T19:22:18.869Z,23.80
2018-01-15T19:24:46.464Z,19.83
2018-01-15T19:27:14.088Z,19.43
2018-01-15T19:29:41.742Z,18.43
2018-01-15T19:32:09.392Z,19.33
2018-01-15T19:34:42.820Z,19.00
2018-01-15T19:37:10.416Z,20.13
2018-01-15T19:39:37.998Z,19.73
2018-01-15T19:42:10.333Z,16.47
2018-01-15T19:44:44.419Z,20.70
2018-01-15T19:47:17.737Z,17.80
2018-01-15T19:49:51.090Z,19.27
2018-01-15T19:52:24.385Z,22.40
2018-01-15T19:54:57.718Z,18.87
2018-01-15T20:00:35.211Z,22.47
2018-01-15T20:03:08.387Z,16.73
2018-01-15T20:05:41.718Z,20.90
2018-01-15T20:08:15.034Z,19.70
2018-01-15T20:10:59.282Z,20.33
2018-01-15T20:13:27.718Z,21.23
2018-01-15T20:15:56.102Z,18.67
2018-01-15T20:18:25.009Z,17.17
2018-01-15T20:20:53.644Z,18.10
2018-01-15T20:23:21.279Z,21.60
2018-01-15T20:25:48.898Z,20.73
2018-01-15T20:28:16.487Z,21.03
2018-01-15T20:30:45.100Z,15.97
2018-01-15T20:33:12.695Z,16.00
2018-01-15T20:35:40.311Z,20.40
2018-01-15T20:38:08.652Z,17.23
2018-01-15T20:40:36.262Z,22.20
2018-01-15T20:43:03.855Z,25.73
2018-01-15T20:45:31.468Z,16.90
2018-01-15T20:47:59.829Z,16.20
2018-01-15T20:50:27.480Z,15.60
2018-01-15T20:52:55.056Z,17.27
2018-01-15T20:55:23.746Z,16.00
2018-01-15T20:57:53.312Z,20.37
2018-01-15T21:00:20.906Z,17.33
2018-01-15T21:02:48.583Z,16.90
2018-01-15T21:05:16.383Z,18.00
2018-01-15T21:07:44.034Z,21.73
2018-01-15T21:10:12.825Z,18.70
2018-01-15T21:12:40.676Z,19.87
2018-01-15T21:15:08.259Z,15.40
2018-01-15T21:17:35.861Z,18.23
2018-01-15T21:20:03.511Z,17.27
2018-01-15T21:22:31.138Z,17.90
2018-01-15T21:24:59.499Z,18.80
2018-01-15T21:27:27.102Z,15.50
2018-01-15T21:29:54.695Z,19.67
2018-01-15T21:32:23.498Z,16.70
2018-01-15T21:34:51.078Z,18.40
2018-01-15T21:37:18.668Z,20.03
2018-01-15T21:39:46.284Z,19.90
2018-01-15T21:42:13.864Z,18.67
2018-01-15T21:44:41.474Z,18.97
2018-01-15T21:47:09.073Z,24.23
2018-01-15T21:49:37.462Z,16.10
2018-01-15T21:52:05.091Z,18.63
2018-01-15T21:54:32.681Z,15.80
2018-01-15T21:57:00.266Z,16.80
2018-01-15T21:59:28.177Z,19.33
2018-01-15T22:01:55.753Z,20.77
2018-01-15T22:04:24.581Z,20.30
2018-01-15T22:06:53.374Z,21.63
2018-01-15T22:09:20.996Z,16.03
2018-01-15T22:11:48.663Z,14.73
2018-01-15T22:14:16.272Z,16.47
2018-01-15T22:16:43.896Z,19.53
2018-01-15T22:19:12.244Z,18.97
2018-01-15T22:21:39.878Z,20.53
2018-01-15T22:24:08.230Z,17.60
2018-01-15T22:26:35.967Z,17.97
2018-01-15T22:29:03.564Z,19.77
2018-01-15T22:31:31.178Z,17.53
2018-01-15T22:33:58.762Z,20.03
2018-01-15T22:36:26.384Z,21.10
2018-01-15T22:38:54.333Z,19.83
2018-01-15T22:41:22.518Z,16.50
2018-01-15T22:43:50.106Z,17.40
2018-01-15T22:46:17.694Z,17.63
2018-01-15T22:48:45.280Z,17.07
2018-01-15T22:51:12.901Z,18.20
2018-01-15T22:53:40.506Z,15.90
2018-01-15T22:56:08.115Z,15.83
2018-01-15T22:58:35.718Z,19.90
2018-01-15T23:01:03.332Z,17.80
2018-01-15T23:03:30.901Z,17.00
2018-01-15T23:05:58.510Z,16.73
2018-01-15T23:08:26.101Z,19.90
2018-01-15T23:10:55.067Z,19.53
2018-01-15T23:13:23.725Z,14.20
2018-01-15T23:15:51.328Z,16.90
2018-01-15T23:18:18.949Z,19.70
2018-01-15T23:20:46.545Z,15.30
2018-01-15T23:23:14.168Z,16.90
2018-01-15T23:25:41.755Z,20.47
2018-01-15T23:28:09.355Z,16.20
2018-01-15T23:30:38.568Z,17.60
2018-01-15T23:33:06.186Z,20.17
2018-01-15T23:35:33.783Z,16.53
2018-01-15T23:38:01.449Z,14.73
2018-01-15T23:40:29.810Z,18.80
2018-01-15T23:42:57.435Z,16.70
2018-01-15T23:45:25.822Z,18.00
2018-01-15T23:47:54.769Z,19.03
2018-01-15T23:50:24.077Z,18.03
2018-01-15T23:52:52.400Z,20.13
2018-01-15T23:55:19.981Z,15.03
2018-01-15T23:57:47.604Z,17.37
